Terminal Aerodrome Forecast
Issued by NWS

Home | Current Version | Previous Version | Text Only | Print | Product List | Glossary On
Versions: 1 2 3 4 5 6 7 8 9 10 11 12 13
000
FTUS46 KEKA 250500 RRA
TAFUKI
TAF
KUKI 250543Z 2506/2606 00000KT P6SM SKC
     FM251900 04006KT P6SM SKC
     FM252200 31008KT P6SM SKC
     FM260300 VRB03KT P6SM SKC=

USA.gov is the U.S. government's official web portal to all federal, state and local government web resources and services.